createdAt,value
2019-02-26T00:01:16.399Z,70.76
2019-02-26T00:03:49.556Z,71.20
2019-02-26T00:06:27.854Z,71.63
2019-02-26T00:09:06.181Z,72.58
2019-02-26T00:11:40.609Z,72.94
2019-02-26T00:14:17.700Z,73.28
2019-02-26T00:16:52.426Z,73.10
2019-02-26T00:19:26.076Z,72.71
2019-02-26T00:21:58.640Z,72.37
2019-02-26T00:24:33.019Z,72.38
2019-02-26T00:27:09.621Z,72.38
2019-02-26T00:29:44.316Z,72.37
2019-02-26T00:32:19.658Z,72.67
2019-02-26T00:34:55.354Z,72.56
2019-02-26T00:37:28.448Z,72.95
2019-02-26T00:40:04.168Z,73.37
2019-02-26T00:42:39.161Z,73.17
2019-02-26T00:45:13.772Z,73.02
2019-02-26T00:47:52.088Z,71.48
2019-02-26T00:50:28.136Z,69.08
2019-02-26T00:53:03.436Z,69.32
2019-02-26T00:55:39.628Z,70.62
2019-02-26T00:58:12.872Z,70.45
2019-02-26T01:00:44.609Z,71.11
2019-02-26T01:03:16.632Z,71.47
2019-02-26T01:05:48.379Z,72.32
2019-02-26T01:08:20.149Z,73.86
2019-02-26T01:10:51.849Z,74.79
2019-02-26T01:13:25.644Z,74.68
2019-02-26T01:15:56.679Z,75.47
2019-02-26T01:18:28.980Z,75.39
2019-02-26T01:21:02.541Z,75.22
2019-02-26T01:23:34.162Z,75.89
2019-02-26T01:26:05.679Z,77.02
2019-02-26T01:28:39.421Z,77.70
2019-02-26T01:31:10.434Z,78.43
2019-02-26T01:33:42.131Z,79.54
2019-02-26T01:36:14.458Z,81.17
2019-02-26T01:38:48.747Z,81.60
2019-02-26T01:41:22.262Z,82.57
2019-02-26T01:43:53.748Z,83.01
2019-02-26T01:46:25.618Z,83.66
2019-02-26T01:48:58.013Z,84.49
2019-02-26T01:51:30.571Z,84.60
2019-02-26T01:54:02.131Z,85.19
2019-02-26T01:56:34.030Z,86.93
2019-02-26T01:59:06.999Z,85.56
2019-02-26T02:01:42.021Z,83.80
2019-02-26T02:04:12.793Z,83.83
2019-02-26T02:07:06.327Z,84.63
2019-02-26T02:09:38.688Z,84.85
2019-02-26T02:12:11.125Z,84.46
2019-02-26T02:14:43.148Z,85.91
2019-02-26T02:22:56.037Z,88.42
2019-02-26T02:25:31.110Z,88.83
2019-02-26T02:28:02.813Z,89.06
2019-02-26T02:30:38.793Z,89.21
2019-02-26T02:33:08.974Z,89.89
2019-02-26T02:35:40.812Z,89.77
2019-02-26T02:38:12.419Z,89.47
2019-02-26T02:40:46.255Z,89.04
2019-02-26T02:43:18.064Z,88.94
2019-02-26T02:45:53.159Z,89.04
2019-02-26T02:48:24.481Z,88.82
2019-02-26T02:50:56.151Z,88.91
2019-02-26T02:53:30.185Z,88.77
2019-02-26T02:56:03.543Z,88.45
2019-02-26T02:58:34.211Z,88.21
2019-02-26T03:01:06.106Z,88.21
2019-02-26T03:03:37.876Z,88.21
2019-02-26T03:06:10.338Z,88.70
2019-02-26T03:08:45.108Z,89.13
2019-02-26T03:11:16.388Z,89.69
2019-02-26T03:13:49.309Z,89.94
2019-02-26T03:16:23.494Z,89.94
2019-02-26T03:18:54.647Z,89.20
2019-02-26T03:21:27.712Z,88.88
2019-02-26T03:24:00.873Z,88.50
2019-02-26T03:26:33.098Z,88.66
2019-02-26T03:29:04.691Z,88.79
2019-02-26T03:31:41.261Z,88.37
2019-02-26T03:34:14.655Z,87.97
2019-02-26T03:36:45.633Z,88.49
2019-02-26T03:39:16.807Z,89.05
2019-02-26T03:41:49.074Z,87.65
2019-02-26T03:44:21.467Z,86.67
2019-02-26T03:46:53.367Z,86.05
2019-02-26T03:49:27.111Z,86.05
2019-02-26T03:52:00.081Z,86.39
2019-02-26T03:54:31.651Z,86.81
2019-02-26T03:57:03.599Z,87.12
2019-02-26T03:59:35.431Z,87.77
2019-02-26T04:02:07.267Z,87.74
2019-02-26T04:04:40.624Z,87.95
2019-02-26T04:07:12.215Z,87.85
2019-02-26T04:09:44.330Z,88.52
2019-02-26T04:12:18.430Z,89.25
2019-02-26T04:14:50.960Z,89.73
2019-02-26T04:17:25.460Z,90.60
2019-02-26T04:19:55.890Z,91.45
2019-02-26T04:22:28.961Z,92.64
2019-02-26T04:25:11.485Z,93.85
2019-02-26T04:28:54.240Z,94.15
2019-02-26T04:32:29.429Z,94.66
2019-02-26T04:36:14.401Z,94.54
2019-02-26T04:40:01.455Z,95.58
2019-02-26T04:43:25.418Z,95.64
2019-02-26T04:46:53.923Z,96.65
2019-02-26T04:49:28.135Z,96.75
2019-02-26T04:51:59.173Z,96.99
2019-02-26T04:54:33.115Z,97.47
2019-02-26T04:57:04.126Z,97.74
2019-02-26T04:59:37.983Z,97.16
2019-02-26T05:02:09.369Z,97.52
2019-02-26T05:04:42.228Z,97.19
2019-02-26T05:07:16.271Z,97.48
2019-02-26T05:09:49.586Z,97.48
2019-02-26T05:12:20.712Z,97.06
2019-02-26T05:14:52.114Z,96.79
2019-02-26T05:17:26.376Z,96.83
2019-02-26T05:19:57.093Z,97.47
2019-02-26T05:22:30.873Z,97.98
2019-02-26T05:25:04.644Z,98.26
2019-02-26T05:27:36.362Z,98.64
2019-02-26T05:30:09.768Z,98.88
2019-02-26T05:32:42.490Z,99.34
2019-02-26T05:35:16.907Z,99.22
2019-02-26T05:37:48.022Z,98.57
2019-02-26T05:40:22.266Z,98.35
2019-02-26T05:42:55.568Z,98.07
2019-02-26T05:45:29.310Z,98.22
2019-02-26T05:48:00.307Z,98.58
2019-02-26T05:50:34.736Z,99.02
2019-02-26T05:53:07.532Z,99.52
2019-02-26T05:55:38.384Z,99.44
2019-02-26T05:58:12.455Z,99.48
2019-02-26T06:00:46.669Z,99.44
2019-02-26T06:03:18.846Z,100.00
2019-02-26T06:05:51.877Z,100.00
2019-02-26T06:08:26.712Z,100.00
2019-02-26T06:10:57.326Z,100.00
2019-02-26T06:13:31.609Z,100.00
2019-02-26T06:16:04.793Z,100.00
2019-02-26T06:18:35.985Z,100.00
2019-02-26T06:21:13.167Z,100.00
2019-02-26T06:23:46.128Z,98.62
2019-02-26T06:26:18.056Z,99.24
2019-02-26T06:28:55.586Z,100.00
2019-02-26T06:31:27.187Z,94.71
2019-02-26T06:34:01.485Z,87.33
2019-02-26T06:36:32.569Z,77.64
2019-02-26T06:39:06.022Z,66.00
2019-02-26T06:41:39.557Z,60.50
2019-02-26T06:44:11.309Z,56.20
2019-02-26T06:46:43.083Z,55.34
2019-02-26T06:49:16.839Z,52.30
2019-02-26T06:51:49.825Z,51.58
2019-02-26T06:54:24.367Z,53.88
2019-02-26T06:56:55.869Z,54.95
2019-02-26T06:59:34.286Z,55.47
2019-02-26T07:02:08.795Z,54.94
2019-02-26T07:04:40.256Z,51.96
2019-02-26T07:07:14.319Z,47.77
2019-02-26T07:09:45.587Z,46.65
2019-02-26T07:12:19.436Z,44.03
2019-02-26T07:14:51.360Z,43.46
2019-02-26T07:17:24.115Z,43.68
2019-02-26T07:19:57.714Z,43.89
2019-02-26T07:22:32.557Z,43.58
2019-02-26T07:25:05.945Z,40.18
2019-02-26T07:27:38.432Z,39.96
2019-02-26T07:30:10.803Z,41.90
2019-02-26T07:32:45.108Z,44.82
2019-02-26T07:35:16.618Z,47.32
2019-02-26T07:37:48.634Z,47.69
2019-02-26T07:40:21.520Z,47.00
2019-02-26T07:42:53.068Z,46.82
2019-02-26T07:45:27.326Z,45.06
2019-02-26T07:47:59.095Z,40.86
2019-02-26T07:50:37.055Z,38.70
2019-02-26T07:53:05.308Z,37.57
2019-02-26T07:55:38.208Z,35.67
2019-02-26T07:58:11.551Z,34.49
2019-02-26T08:00:49.119Z,34.69
2019-02-26T08:03:19.339Z,33.07
2019-02-26T08:05:51.000Z,31.29
2019-02-26T08:08:22.976Z,29.31
2019-02-26T08:10:55.017Z,28.03
2019-02-26T08:13:29.103Z,28.09
2019-02-26T08:16:02.329Z,30.03
2019-02-26T08:18:33.691Z,30.11
2019-02-26T08:21:05.545Z,29.66
2019-02-26T08:23:37.439Z,30.41
2019-02-26T08:26:09.306Z,30.85
2019-02-26T08:28:43.248Z,30.27
2019-02-26T08:31:16.040Z,30.73
2019-02-26T08:33:50.927Z,29.23
2019-02-26T08:36:21.771Z,28.26
2019-02-26T08:38:56.455Z,25.93
2019-02-26T08:41:27.001Z,24.26
2019-02-26T08:43:58.963Z,25.22
2019-02-26T08:46:30.942Z,28.26
2019-02-26T08:49:08.264Z,27.73
2019-02-26T08:51:38.882Z,26.51
2019-02-26T08:54:20.343Z,24.80
2019-02-26T08:56:44.692Z,26.24
2019-02-26T08:59:17.770Z,28.12
2019-02-26T09:01:50.068Z,27.44
2019-02-26T09:04:23.797Z,26.23
2019-02-26T09:06:57.081Z,25.90
2019-02-26T09:09:30.326Z,24.25
2019-02-26T09:12:03.379Z,24.13
2019-02-26T09:14:37.614Z,23.38
2019-02-26T09:17:09.199Z,22.43
2019-02-26T09:19:41.126Z,21.87
2019-02-26T09:22:14.948Z,20.85
2019-02-26T09:24:49.301Z,20.89
2019-02-26T09:27:20.417Z,20.61
2019-02-26T09:29:52.199Z,20.92
2019-02-26T09:32:23.899Z,21.45
2019-02-26T09:34:57.410Z,22.99
2019-02-26T09:37:29.573Z,24.50
2019-02-26T09:40:02.819Z,25.38
2019-02-26T09:42:34.832Z,27.17
2019-02-26T09:45:07.782Z,28.16
2019-02-26T09:47:39.976Z,27.89
2019-02-26T09:50:12.936Z,28.02
2019-02-26T09:52:47.778Z,27.05
2019-02-26T09:55:19.931Z,26.19
2019-02-26T09:57:51.904Z,26.72
2019-02-26T10:00:26.944Z,28.95
2019-02-26T10:02:57.672Z,30.41
2019-02-26T10:05:30.257Z,31.28
2019-02-26T10:08:04.953Z,32.19
2019-02-26T10:10:39.050Z,33.59
2019-02-26T10:13:09.640Z,33.46
2019-02-26T10:15:44.845Z,33.37
2019-02-26T10:18:16.841Z,34.15
2019-02-26T10:20:50.444Z,34.97
2019-02-26T10:23:24.062Z,35.07
2019-02-26T10:26:00.200Z,35.44
2019-02-26T10:28:35.157Z,35.93
2019-02-26T10:31:08.545Z,36.68
2019-02-26T10:33:41.120Z,36.78
2019-02-26T10:36:15.525Z,37.47
2019-02-26T10:38:46.655Z,37.62
2019-02-26T10:41:18.687Z,37.78
2019-02-26T10:43:50.413Z,37.18
2019-02-26T10:46:22.246Z,35.37
2019-02-26T10:48:54.080Z,34.93
2019-02-26T10:51:27.234Z,33.14
2019-02-26T10:53:59.858Z,32.32
2019-02-26T10:56:36.822Z,31.85
2019-02-26T10:59:09.381Z,31.34
2019-02-26T11:01:40.026Z,34.12
2019-02-26T11:04:11.864Z,35.86
2019-02-26T11:06:45.197Z,35.15
2019-02-26T11:09:19.255Z,36.99
2019-02-26T11:11:51.252Z,36.04
2019-02-26T11:14:23.129Z,35.72
2019-02-26T11:16:54.947Z,37.48
2019-02-26T11:19:32.905Z,35.42
2019-02-26T11:22:04.166Z,32.57
2019-02-26T11:24:36.181Z,31.95
2019-02-26T11:27:07.846Z,31.19
2019-02-26T11:29:40.734Z,30.92
2019-02-26T11:32:15.063Z,32.50
2019-02-26T11:34:45.934Z,31.40
2019-02-26T11:37:20.153Z,31.99
2019-02-26T11:39:52.683Z,33.22
2019-02-26T11:42:26.084Z,36.15
2019-02-26T11:44:58.563Z,36.30
2019-02-26T11:47:32.358Z,34.86
2019-02-26T11:50:07.113Z,34.67
2019-02-26T11:52:38.928Z,33.18
2019-02-26T11:55:11.568Z,33.40
2019-02-26T11:57:45.687Z,34.47
2019-02-26T12:00:31.326Z,34.98
2019-02-26T12:02:59.753Z,35.01
2019-02-26T12:05:35.461Z,35.98
2019-02-26T12:08:05.029Z,35.84
2019-02-26T12:10:37.969Z,35.35
2019-02-26T12:13:10.920Z,35.82
2019-02-26T12:15:43.146Z,36.01
2019-02-26T12:18:17.406Z,36.10
2019-02-26T12:20:48.910Z,35.17
2019-02-26T12:23:22.751Z,35.01
2019-02-26T12:25:55.501Z,34.67
2019-02-26T12:28:29.139Z,34.70
2019-02-26T12:31:04.276Z,34.44
2019-02-26T12:33:35.985Z,34.17
2019-02-26T12:36:09.808Z,33.34
2019-02-26T12:38:42.578Z,32.30
2019-02-26T12:41:15.963Z,32.68
2019-02-26T12:43:48.133Z,32.24
2019-02-26T12:46:21.709Z,32.22
2019-02-26T12:48:53.887Z,30.37
2019-02-26T12:51:28.098Z,30.38
2019-02-26T12:54:01.211Z,30.32
2019-02-26T12:56:34.116Z,29.50
2019-02-26T12:59:07.611Z,28.77
2019-02-26T13:01:42.176Z,30.07
2019-02-26T13:04:16.673Z,28.17
2019-02-26T13:10:22.342Z,28.84
2019-02-26T13:12:59.306Z,28.10
2019-02-26T13:15:30.353Z,29.17
2019-02-26T13:18:02.097Z,29.01
2019-02-26T13:20:33.979Z,28.17
2019-02-26T13:25:39.419Z,22.37
2019-02-26T13:28:11.541Z,22.17
2019-02-26T13:30:43.444Z,22.83
2019-02-26T13:33:17.845Z,24.19
2019-02-26T13:35:56.298Z,22.12
2019-02-26T13:38:24.875Z,21.67
2019-02-26T13:41:24.370Z,22.62
2019-02-26T13:43:30.650Z,22.55
2019-02-26T13:46:02.360Z,23.12
2019-02-26T13:48:33.956Z,21.91
2019-02-26T13:51:06.088Z,20.80
2019-02-26T13:53:37.829Z,19.39
2019-02-26T13:56:09.995Z,19.53
2019-02-26T13:58:42.540Z,19.84
2019-02-26T14:01:15.037Z,20.79
2019-02-26T14:03:46.642Z,21.32
2019-02-26T14:06:18.575Z,20.95
2019-02-26T14:08:51.106Z,20.00
2019-02-26T14:11:23.022Z,19.82
2019-02-26T14:13:54.955Z,20.46
2019-02-26T14:16:32.423Z,20.05
2019-02-26T14:19:00.492Z,20.10
2019-02-26T14:21:32.667Z,20.06
2019-02-26T14:24:04.932Z,20.10
2019-02-26T14:26:37.120Z,19.70
2019-02-26T14:29:09.349Z,18.98
2019-02-26T14:31:43.604Z,18.76
2019-02-26T14:34:15.597Z,18.23
2019-02-26T14:36:47.700Z,18.50
2019-02-26T14:39:19.539Z,18.38
2019-02-26T14:41:51.388Z,18.32
2019-02-26T14:44:23.372Z,18.49
2019-02-26T14:46:55.329Z,18.34
2019-02-26T14:49:27.160Z,18.06
2019-02-26T14:51:59.034Z,18.27
2019-02-26T14:54:30.976Z,18.62
2019-02-26T14:57:03.253Z,18.76
2019-02-26T14:59:35.231Z,19.69
2019-02-26T15:02:06.961Z,20.29
2019-02-26T15:04:38.549Z,20.77
2019-02-26T15:07:10.619Z,21.17
2019-02-26T15:09:43.037Z,21.34
2019-02-26T15:12:14.717Z,21.22
2019-02-26T15:14:48.793Z,21.66
2019-02-26T15:17:20.585Z,21.76
2019-02-26T15:19:53.316Z,21.97
2019-02-26T15:22:25.089Z,22.07
2019-02-26T15:24:57.277Z,21.91
2019-02-26T15:27:36.935Z,21.79
2019-02-26T15:30:02.707Z,22.63
2019-02-26T15:32:37.636Z,22.49
2019-02-26T15:35:10.130Z,23.12
2019-02-26T15:37:42.123Z,23.23
2019-02-26T15:40:15.485Z,22.96
2019-02-26T15:42:47.614Z,22.85
2019-02-26T15:45:24.922Z,22.90
2019-02-26T15:47:56.896Z,23.60
2019-02-26T15:50:30.469Z,24.00
2019-02-26T15:53:02.366Z,24.49
2019-02-26T15:55:34.220Z,25.33
2019-02-26T15:58:06.910Z,25.95
2019-02-26T16:00:38.808Z,26.36
2019-02-26T16:03:10.847Z,26.88
2019-02-26T16:05:43.091Z,27.55
2019-02-26T16:08:15.112Z,28.05
2019-02-26T16:10:47.002Z,28.74
2019-02-26T16:13:19.541Z,29.37
2019-02-26T16:15:51.601Z,29.79
2019-02-26T16:18:24.220Z,30.12
2019-02-26T16:20:56.614Z,30.60
2019-02-26T16:23:28.366Z,30.98
2019-02-26T16:26:00.815Z,31.42
2019-02-26T16:28:33.092Z,32.50
2019-02-26T16:31:05.380Z,33.52
2019-02-26T16:33:37.639Z,33.54
2019-02-26T16:36:09.813Z,33.94
2019-02-26T16:38:41.941Z,34.27
2019-02-26T16:41:15.304Z,34.73
2019-02-26T16:43:47.393Z,35.52
2019-02-26T16:46:20.018Z,36.15
2019-02-26T16:48:53.590Z,36.87
2019-02-26T16:51:26.599Z,37.08
2019-02-26T16:53:59.250Z,37.72
2019-02-26T16:56:31.720Z,37.97
2019-02-26T16:59:07.614Z,38.61
2019-02-26T17:01:38.730Z,39.85
2019-02-26T17:04:11.932Z,40.06
2019-02-26T17:06:44.341Z,40.72
2019-02-26T17:09:16.426Z,41.36
2019-02-26T17:11:48.953Z,41.99
2019-02-26T17:14:22.017Z,42.70
2019-02-26T17:16:54.307Z,43.01
2019-02-26T17:19:26.951Z,43.12
2019-02-26T17:21:59.162Z,43.40
2019-02-26T17:24:32.701Z,43.05
2019-02-26T17:27:06.456Z,42.99
2019-02-26T17:29:40.756Z,43.13
2019-02-26T17:32:12.757Z,43.45
2019-02-26T17:34:44.755Z,43.51
2019-02-26T17:37:17.651Z,44.14
2019-02-26T17:39:49.543Z,44.28
2019-02-26T17:42:22.406Z,43.86
2019-02-26T17:44:55.275Z,43.94
2019-02-26T17:47:28.231Z,44.09
2019-02-26T17:50:01.020Z,44.18
2019-02-26T17:52:33.847Z,46.26
2019-02-26T17:55:09.168Z,46.53
2019-02-26T17:57:40.538Z,47.59
2019-02-26T18:00:15.709Z,48.83
2019-02-26T18:02:48.672Z,50.14
2019-02-26T18:05:21.056Z,50.81
2019-02-26T18:07:54.023Z,51.29
2019-02-26T18:10:26.804Z,50.88
2019-02-26T18:13:00.232Z,51.17
2019-02-26T18:15:32.728Z,52.03
2019-02-26T18:18:05.051Z,53.05
2019-02-26T18:20:37.579Z,53.17
2019-02-26T18:23:10.391Z,53.06
2019-02-26T18:25:43.314Z,53.02
2019-02-26T18:28:15.743Z,52.78
2019-02-26T18:30:47.939Z,52.97
2019-02-26T18:33:21.625Z,52.92
2019-02-26T18:35:54.597Z,52.75
2019-02-26T18:38:28.237Z,52.31
2019-02-26T18:41:01.280Z,52.29
2019-02-26T18:43:34.355Z,52.49
2019-02-26T18:46:07.110Z,52.73
2019-02-26T18:48:40.774Z,52.30
2019-02-26T18:51:15.322Z,52.70
2019-02-26T18:53:48.114Z,53.19
2019-02-26T18:56:21.113Z,53.53
2019-02-26T18:58:54.933Z,53.86
2019-02-26T19:01:28.480Z,54.39
2019-02-26T19:04:02.514Z,54.55
2019-02-26T19:06:37.586Z,55.20
2019-02-26T19:09:12.285Z,55.58
2019-02-26T19:11:45.076Z,55.37
2019-02-26T19:14:17.935Z,55.37
2019-02-26T19:16:54.130Z,55.69
2019-02-26T19:19:27.421Z,56.25
2019-02-26T19:22:01.308Z,56.36
2019-02-26T19:24:35.870Z,56.43
2019-02-26T19:27:09.483Z,57.59
2019-02-26T19:29:42.799Z,59.04
2019-02-26T19:32:19.883Z,59.76
2019-02-26T19:34:53.805Z,60.20
2019-02-26T19:37:27.650Z,59.32
2019-02-26T19:40:05.730Z,59.06
2019-02-26T19:42:38.589Z,58.80
2019-02-26T19:45:14.147Z,59.88
2019-02-26T19:47:47.209Z,60.88
2019-02-26T19:50:20.870Z,62.18
2019-02-26T19:52:57.197Z,64.16
2019-02-26T19:55:33.381Z,66.51
2019-02-26T19:58:07.119Z,67.89
2019-02-26T20:00:41.170Z,69.32
2019-02-26T20:03:14.692Z,70.11
2019-02-26T20:05:48.014Z,70.36
2019-02-26T20:08:21.144Z,70.48
2019-02-26T20:10:54.970Z,70.74
2019-02-26T20:13:27.802Z,70.66
2019-02-26T20:16:00.268Z,70.59
2019-02-26T20:18:32.918Z,70.52
2019-02-26T20:21:06.925Z,70.04
2019-02-26T20:23:42.068Z,70.37
2019-02-26T20:26:16.529Z,70.29
2019-02-26T20:28:48.732Z,70.18
2019-02-26T20:31:21.886Z,70.05
2019-02-26T20:33:56.349Z,69.72
2019-02-26T20:36:29.835Z,70.01
2019-02-26T20:39:07.674Z,69.62
2019-02-26T20:41:38.877Z,69.83
2019-02-26T20:44:11.401Z,70.43
2019-02-26T20:46:45.627Z,71.50
2019-02-26T20:49:19.891Z,70.94
2019-02-26T20:51:52.811Z,70.08
2019-02-26T20:54:26.171Z,70.15
2019-02-26T20:56:58.570Z,70.85
2019-02-26T20:59:30.799Z,72.19
2019-02-26T21:02:03.439Z,73.01
2019-02-26T21:04:37.551Z,73.98
2019-02-26T21:07:10.331Z,74.29
2019-02-26T21:09:42.867Z,74.83
2019-02-26T21:12:14.971Z,76.00
2019-02-26T21:14:47.686Z,76.55
2019-02-26T21:17:19.850Z,77.37
2019-02-26T21:19:52.238Z,78.05
2019-02-26T21:22:24.574Z,78.52
2019-02-26T21:24:56.983Z,78.17
2019-02-26T21:27:32.301Z,77.78
2019-02-26T21:30:06.048Z,77.40
2019-02-26T21:32:39.305Z,77.24
2019-02-26T21:35:12.375Z,77.40
2019-02-26T21:37:48.899Z,77.98
2019-02-26T21:40:23.294Z,78.49
2019-02-26T21:42:55.725Z,78.74
2019-02-26T21:45:29.267Z,78.98
2019-02-26T21:48:02.764Z,78.96
2019-02-26T21:50:35.582Z,78.95
2019-02-26T21:53:07.410Z,78.88
2019-02-26T21:55:44.282Z,78.57
2019-02-26T21:58:15.040Z,78.30
2019-02-26T22:00:47.434Z,78.32
2019-02-26T22:03:20.275Z,78.82
2019-02-26T22:05:53.059Z,79.08
2019-02-26T22:08:25.957Z,79.71
2019-02-26T22:10:58.120Z,79.87
2019-02-26T22:13:30.483Z,79.95
2019-02-26T22:16:02.415Z,80.22
2019-02-26T22:18:34.455Z,80.41
2019-02-26T22:21:06.383Z,80.70
2019-02-26T22:23:38.848Z,81.03
2019-02-26T22:26:11.288Z,81.63
2019-02-26T22:28:43.946Z,82.16
2019-02-26T22:31:15.792Z,82.42
2019-02-26T22:33:48.135Z,82.25
2019-02-26T22:36:20.213Z,82.19
2019-02-26T22:38:52.359Z,81.99
2019-02-26T22:41:24.670Z,82.11
2019-02-26T22:43:57.258Z,82.18
2019-02-26T22:46:33.660Z,82.26
2019-02-26T22:49:04.163Z,82.16
2019-02-26T22:51:36.211Z,82.09
2019-02-26T22:54:09.832Z,82.24
2019-02-26T22:56:43.470Z,82.14
2019-02-26T22:59:15.767Z,82.41
2019-02-26T23:01:49.411Z,82.57
2019-02-26T23:04:21.314Z,82.78
2019-02-26T23:06:53.641Z,83.12
2019-02-26T23:09:28.212Z,83.24
2019-02-26T23:12:04.828Z,84.02
2019-02-26T23:14:38.755Z,84.45
2019-02-26T23:17:12.199Z,85.02
2019-02-26T23:19:44.893Z,85.63
2019-02-26T23:22:17.144Z,85.79
2019-02-26T23:24:49.017Z,85.83
2019-02-26T23:27:23.202Z,85.85
2019-02-26T23:29:54.974Z,85.82
2019-02-26T23:32:28.972Z,85.60
2019-02-26T23:35:09.915Z,85.67
2019-02-26T23:37:41.828Z,85.78
2019-02-26T23:40:13.987Z,85.77
2019-02-26T23:42:46.287Z,85.56
2019-02-26T23:45:18.934Z,85.78
2019-02-26T23:47:51.124Z,86.31
2019-02-26T23:50:22.747Z,86.62
2019-02-26T23:52:55.519Z,86.73
2019-02-26T23:55:28.111Z,87.54
2019-02-26T23:58:01.010Z,88.19
